Time;durP1;ratioP1;P1;durP2;ratioP2;P2;SDS_P1;SDS_P2;PMS_P1;PMS_P2;Temp;Humidity;BMP_temperature;BMP_pressure;BME280_temperature;BME280_humidity;BME280_pressure;Samples;Min_cycle;Max_cycle;Signal;HPM_P1;HPM_P2
2023/04/16 00:00:16;;;;;;;;;52.00;44.00;;;;;6.92;100.00;99256.53;6277967;20;2865010;-59
2023/04/16 00:02:46;;;;;;;;;57.00;45.67;;;;;6.94;100.00;99257.34;6279962;20;2861904;-58
2023/04/16 00:05:15;;;;;;;;;57.00;45.00;;;;;6.87;100.00;99261.28;6308994;20;2856515;-58
2023/04/16 00:07:44;;;;;;;;;56.00;45.00;;;;;6.77;100.00;99248.44;6278601;20;2861765;-55
2023/04/16 00:10:13;;;;;;;;;53.00;43.00;;;;;6.66;100.00;99256.16;6280389;20;2859668;-60
2023/04/16 00:12:42;;;;;;;;;57.00;46.00;;;;;6.80;100.00;99263.41;6274275;20;2849288;-57
2023/04/16 00:15:11;;;;;;;;;57.67;48.00;;;;;6.64;100.00;99260.69;6277570;20;2860775;-59
2023/04/16 00:17:41;;;;;;;;;50.00;41.00;;;;;6.59;100.00;99260.94;6307122;20;2879539;-58
2023/04/16 00:20:10;;;;;;;;;51.50;44.00;;;;;6.51;100.00;99262.28;6308609;20;2863858;-58
2023/04/16 00:22:39;;;;;;;;;53.50;43.00;;;;;6.48;100.00;99252.63;6276198;20;2862800;-59
2023/04/16 00:25:08;;;;;;;;;60.00;49.00;;;;;6.44;100.00;99248.38;6276405;20;2855453;-58
2023/04/16 00:27:37;;;;;;;;;50.50;41.00;;;;;6.46;100.00;99242.97;6279963;20;2870077;-57
2023/04/16 00:30:07;;;;;;;;;48.00;41.50;;;;;6.64;100.00;99255.34;6278717;20;2854549;-57
2023/04/16 00:32:36;;;;;;;;;46.00;40.33;;;;;6.49;100.00;99237.47;6280510;20;2863855;-53
2023/04/16 00:35:06;;;;;;;;;52.50;42.00;;;;;6.50;100.00;99244.53;6309973;20;2858645;-58
2023/04/16 00:37:35;;;;;;;;;47.50;40.50;;;;;6.53;100.00;99249.69;6277398;20;2860791;-59
2023/04/16 00:40:06;;;;;;;;;33.67;33.33;;;;;6.48;100.00;99243.78;6278161;20;2857664;-58
2023/04/16 00:42:35;;;;;;;;;47.33;38.00;;;;;6.54;100.00;99240.78;6308058;20;3609640;-57
2023/04/16 00:45:06;;;;;;;;;40.00;36.67;;;;;6.55;100.00;99240.69;6276904;20;2864860;-58
2023/04/16 00:47:35;;;;;;;;;33.33;33.00;;;;;6.65;100.00;99238.41;6311275;20;3584016;-58
2023/04/16 00:50:05;;;;;;;;;39.33;37.33;;;;;6.58;100.00;99236.97;6309095;20;3596135;-59
2023/04/16 00:52:34;;;;;;;;;33.50;29.00;;;;;6.64;100.00;99235.81;6276635;20;2862779;-57
2023/04/16 00:55:05;;;;;;;;;36.50;33.50;;;;;6.74;100.00;99234.38;6274095;20;2843005;-59
2023/04/16 00:57:35;;;;;;;;;40.33;34.33;;;;;6.72;100.00;99237.13;6276122;20;2867037;-59
2023/04/16 01:00:05;;;;;;;;;38.00;29.67;;;;;6.79;100.00;99230.53;6311892;20;3619106;-58
2023/04/16 01:02:34;;;;;;;;;36.00;32.50;;;;;6.70;100.00;99236.34;6277473;20;2835058;-54
2023/04/16 01:05:05;;;;;;;;;27.50;27.00;;;;;6.63;100.00;99239.41;6276231;20;2850353;-57
2023/04/16 01:07:34;;;;;;;;;31.50;31.50;;;;;6.31;100.00;99239.28;6273848;20;2861742;-59
2023/04/16 01:10:03;;;;;;;;;43.50;37.00;;;;;6.58;100.00;99239.66;6278343;20;2855439;-59
2023/04/16 01:12:32;;;;;;;;;35.50;33.00;;;;;6.62;100.00;99246.56;6277386;20;2846127;-59
2023/04/16 01:15:01;;;;;;;;;35.50;34.50;;;;;6.69;100.00;99247.09;6275102;20;2854578;-56
2023/04/16 01:17:30;;;;;;;;;42.50;38.00;;;;;6.43;100.00;99248.47;6277638;20;2865975;-58
2023/04/16 01:20:00;;;;;;;;;40.00;36.00;;;;;6.35;100.00;99257.72;6276087;20;2740968;-58
2023/04/16 01:22:30;;;;;;;;;40.33;36.67;;;;;6.07;100.00;99263.59;6306043;20;2866959;-59
2023/04/16 01:24:59;;;;;;;;;43.33;38.67;;;;;6.17;100.00;99258.66;6311221;20;3613814;-57
2023/04/16 01:27:30;;;;;;;;;66.33;49.33;;;;;6.08;100.00;99272.44;6276212;20;3629411;-59
2023/04/16 01:29:58;;;;;;;;;57.00;47.50;;;;;6.08;100.00;99264.44;6303885;20;2857533;-58
2023/04/16 01:32:26;;;;;;;;;42.50;37.00;;;;;6.04;100.00;99269.06;6275546;20;2869008;-58
2023/04/16 01:34:55;;;;;;;;;39.00;34.50;;;;;5.85;100.00;99262.91;6277022;20;2847188;-59
2023/04/16 01:37:24;;;;;;;;;43.00;36.50;;;;;6.11;100.00;99264.31;6272360;20;2867080;-59
2023/04/16 01:39:53;;;;;;;;;48.50;41.00;;;;;5.86;100.00;99260.16;6274901;20;2866011;-58
2023/04/16 01:42:22;;;;;;;;;36.50;34.00;;;;;5.82;100.00;99260.34;6274246;20;2862018;-58
2023/04/16 01:44:51;;;;;;;;;34.50;34.00;;;;;5.72;100.00;99263.50;6272573;20;2854504;-58
2023/04/16 01:47:20;;;;;;;;;34.00;33.00;;;;;5.86;100.00;99276.13;6275625;20;2850278;-56
2023/04/16 01:49:50;;;;;;;;;45.33;35.33;;;;;5.90;100.00;99272.38;6276154;20;2880496;-58
2023/04/16 01:52:18;;;;;;;;;36.67;35.33;;;;;5.95;100.00;99264.22;6306967;20;3589874;-59
2023/04/16 01:54:47;;;;;;;;;40.50;36.50;;;;;6.02;100.00;99262.94;6306923;20;2856605;-60
2023/04/16 01:57:16;;;;;;;;;47.00;41.00;;;;;6.03;100.00;99272.69;6271778;20;2801452;-58
2023/04/16 01:59:45;;;;;;;;;39.50;35.00;;;;;5.87;100.00;99274.31;6274497;20;2864881;-57
2023/04/16 02:02:15;;;;;;;;;40.50;36.00;;;;;5.63;100.00;99271.91;6271697;20;2853408;-59
2023/04/16 02:04:45;;;;;;;;;42.33;38.00;;;;;5.58;100.00;99267.75;6271798;20;2863905;-59
2023/04/16 02:07:15;;;;;;;;;39.67;35.33;;;;;5.72;100.00;99273.28;6302875;20;2860741;-58
2023/04/16 02:09:44;;;;;;;;;40.00;36.00;;;;;5.80;100.00;99268.44;6304577;20;2860733;-60
2023/04/16 02:12:12;;;;;;;;;25.50;23.00;;;;;5.78;100.00;99265.00;6273431;20;2857584;-57
2023/04/16 02:14:42;;;;;;;;;43.33;37.33;;;;;5.52;100.00;99270.72;6273476;20;2866968;-59
2023/04/16 02:17:11;;;;;;;;;41.00;36.00;;;;;5.51;100.00;99269.84;6303245;20;2868026;-60
2023/04/16 02:19:40;;;;;;;;;41.00;35.00;;;;;5.37;100.00;99273.19;6274863;20;2872148;-59
2023/04/16 02:22:10;;;;;;;;;47.67;39.33;;;;;5.61;100.00;99264.94;6272941;20;2862912;-60
2023/04/16 02:24:39;;;;;;;;;41.00;37.00;;;;;5.52;100.00;99262.72;6306360;20;2860841;-59
2023/04/16 02:27:08;;;;;;;;;35.00;33.00;;;;;5.63;100.00;99263.06;6304094;20;2844156;-59
2023/04/16 02:29:37;;;;;;;;;47.00;40.00;;;;;5.46;100.00;99267.41;6276848;20;2861700;-59
2023/04/16 02:32:07;;;;;;;;;44.33;38.00;;;;;5.38;100.00;99260.72;6276234;20;2863931;-58
2023/04/16 02:34:38;;;;;;;;;42.33;37.00;;;;;5.19;100.00;99266.91;6306831;20;2857612;-59
2023/04/16 02:37:07;;;;;;;;;37.00;32.00;;;;;5.04;100.00;99263.13;6302855;20;2841925;-58
2023/04/16 02:39:36;;;;;;;;;35.00;30.50;;;;;5.17;100.00;99265.25;6277049;20;2858587;-58
2023/04/16 02:42:05;;;;;;;;;38.00;37.00;;;;;5.04;100.00;99254.31;6273010;20;2849746;-59
2023/04/16 02:44:34;;;;;;;;;36.00;33.50;;;;;4.91;100.00;99261.13;6275904;20;2851360;-61
2023/04/16 02:47:02;;;;;;;;;37.00;35.50;;;;;5.03;100.00;99260.56;6274893;20;2843020;-59
2023/04/16 02:49:32;;;;;;;;;45.67;37.33;;;;;4.86;100.00;99261.31;6275004;20;2877480;-59
2023/04/16 02:52:01;;;;;;;;;39.50;37.00;;;;;4.91;100.00;99269.09;6305831;20;2841965;-60
2023/04/16 02:54:30;;;;;;;;;34.00;30.33;;;;;5.09;100.00;99272.72;6276394;20;2862916;-60
2023/04/16 02:57:01;;;;;;;;;36.00;33.00;;;;;5.20;100.00;99271.28;6304530;20;2846120;-60
2023/04/16 02:59:30;;;;;;;;;35.00;32.67;;;;;5.31;100.00;99268.13;6272367;20;2849356;-59
2023/04/16 03:01:59;;;;;;;;;31.00;28.00;;;;;5.22;100.00;99273.88;6306294;20;2842058;-60
2023/04/16 03:04:29;;;;;;;;;36.00;31.33;;;;;5.06;100.00;99265.75;6273727;20;2860676;-60
2023/04/16 03:06:58;;;;;;;;;39.67;35.33;;;;;5.14;100.00;99265.41;6306779;20;2852506;-60
2023/04/16 03:09:28;;;;;;;;;45.00;35.67;;;;;5.02;100.00;99272.97;6307331;20;2870153;-59
2023/04/16 03:11:57;;;;;;;;;36.50;33.00;;;;;5.15;100.00;99278.63;6305918;20;2852361;-59
2023/04/16 03:14:26;;;;;;;;;44.00;35.00;;;;;5.26;100.00;99286.09;6275434;20;2859781;-60
2023/04/16 03:16:54;;;;;;;;;37.00;35.00;;;;;5.05;100.00;99288.84;6274121;20;2724347;-59
2023/04/16 03:19:23;;;;;;;;;38.00;35.00;;;;;4.96;100.00;99278.59;6303112;20;2851351;-60
2023/04/16 03:21:53;;;;;;;;;41.33;34.33;;;;;4.94;100.00;99288.44;6271871;20;2858614;-59
2023/04/16 03:24:22;;;;;;;;;32.50;30.50;;;;;4.94;100.00;99299.06;6304690;20;2855539;-60
2023/04/16 03:26:51;;;;;;;;;34.50;34.00;;;;;4.97;100.00;99304.25;6280082;20;2845094;-60
2023/04/16 03:29:20;;;;;;;;;37.00;35.00;;;;;4.80;100.00;99313.00;6280645;20;2866959;-59
2023/04/16 03:31:49;;;;;;;;;41.00;35.50;;;;;5.16;100.00;99301.66;6308274;20;2853468;-60
2023/04/16 03:34:18;;;;;;;;;44.00;38.00;;;;;5.14;100.00;99307.97;6277646;20;2857677;-60
2023/04/16 03:36:47;;;;;;;;;49.00;40.00;;;;;4.94;100.00;99317.69;6279277;20;2869005;-60
2023/04/16 03:39:16;;;;;;;;;57.67;45.33;;;;;5.06;100.00;99319.81;6280139;20;2881554;-60
2023/04/16 03:41:45;;;;;;;;;53.50;43.00;;;;;4.84;100.00;99330.56;6308572;20;2851507;-59
2023/04/16 03:44:15;;;;;;;;;57.67;45.67;;;;;5.10;100.00;99327.66;6276017;20;2873261;-59
2023/04/16 03:46:44;;;;;;;;;58.67;43.67;;;;;4.94;100.00;99324.81;6307425;20;2863975;-59
2023/04/16 03:49:13;;;;;;;;;48.50;40.00;;;;;5.14;100.00;99331.91;6310997;20;2864913;-57
2023/04/16 03:51:41;;;;;;;;;51.50;41.00;;;;;5.18;100.00;99337.00;6274894;20;2491984;-59
2023/04/16 03:54:11;;;;;;;;;49.00;38.00;;;;;5.34;100.00;99336.31;6278882;20;2872280;-59
2023/04/16 03:56:40;;;;;;;;;54.50;45.00;;;;;5.37;100.00;99329.06;6304665;20;2866963;-59
2023/04/16 03:59:10;;;;;;;;;56.50;45.00;;;;;5.27;100.00;99330.44;6277589;20;2870089;-59
2023/04/16 04:01:40;;;;;;;;;37.33;36.33;;;;;5.20;100.00;99327.16;6276666;20;2855543;-59
2023/04/16 04:04:09;;;;;;;;;44.00;38.67;;;;;5.11;100.00;99334.69;6306229;20;2871101;-59
2023/04/16 04:06:39;;;;;;;;;44.00;35.00;;;;;5.26;100.00;99339.34;6307819;20;2865128;-60
2023/04/16 04:09:08;;;;;;;;;39.50;35.50;;;;;5.29;100.00;99336.53;6310438;20;2860685;-59
2023/04/16 04:11:37;;;;;;;;;37.00;34.50;;;;;5.30;100.00;99330.28;6276858;20;2848187;-59
2023/04/16 04:14:06;;;;;;;;;38.00;34.00;;;;;5.32;100.00;99333.75;6276957;20;2854513;-59
2023/04/16 04:16:35;;;;;;;;;38.00;35.00;;;;;5.33;100.00;99323.97;6276493;20;2849276;-60
2023/04/16 04:19:04;;;;;;;;;40.00;35.50;;;;;5.32;100.00;99332.84;6276102;20;2851447;-60
2023/04/16 04:21:33;;;;;;;;;38.50;35.00;;;;;5.52;100.00;99335.47;6278050;20;2852355;-60
2023/04/16 04:24:02;;;;;;;;;38.50;35.00;;;;;5.37;100.00;99338.84;6275131;20;2866892;-60
2023/04/16 04:26:31;;;;;;;;;32.00;29.00;;;;;5.57;100.00;99353.91;6274690;20;2856637;-60
2023/04/16 04:29:01;;;;;;;;;46.00;35.67;;;;;5.86;100.00;99347.19;6308521;20;2863799;-60
2023/04/16 04:31:30;;;;;;;;;34.50;34.00;;;;;5.87;100.00;99352.47;6310005;20;2848232;-59
2023/04/16 04:33:59;;;;;;;;;36.33;32.00;;;;;6.15;100.00;99348.50;6279012;20;2869079;-58
2023/04/16 04:36:28;;;;;;;;;35.67;35.00;;;;;6.52;100.00;99360.00;6310602;20;3585728;-58
2023/04/16 04:38:57;;;;;;;;;37.50;35.00;;;;;6.52;100.00;99354.66;6307200;20;2852415;-60
2023/04/16 04:41:26;;;;;;;;;37.00;34.67;;;;;6.24;100.00;99344.50;6275696;20;2854494;-60
2023/04/16 04:43:56;;;;;;;;;36.67;32.67;;;;;6.62;100.00;99360.41;6304800;20;2852409;-59
2023/04/16 04:46:25;;;;;;;;;28.50;26.50;;;;;6.95;100.00;99361.34;6303721;20;2846168;-60
2023/04/16 04:48:55;;;;;;;;;34.67;30.00;;;;;7.16;100.00;99372.72;6276554;20;3602387;-59
2023/04/16 04:51:23;;;;;;;;;29.00;28.67;;;;;7.32;100.00;99371.88;6310119;20;3594034;-60
2023/04/16 04:53:53;;;;;;;;;36.00;30.67;;;;;7.16;100.00;99366.50;6310266;20;2865038;-60
2023/04/16 04:56:22;;;;;;;;;28.00;26.50;;;;;7.30;100.00;99366.63;6305372;20;2846098;-60
2023/04/16 04:58:51;;;;;;;;;32.33;29.00;;;;;7.24;100.00;99367.84;6274136;20;2860699;-59
2023/04/16 05:01:21;;;;;;;;;37.67;31.00;;;;;6.99;100.00;99359.38;6307550;20;3603373;-59
2023/04/16 05:03:50;;;;;;;;;33.67;30.67;;;;;6.98;100.00;99373.69;6306238;20;2864964;-59
2023/04/16 05:06:19;;;;;;;;;33.33;31.00;;;;;7.04;100.00;99378.69;6309495;20;3600268;-59
2023/04/16 05:08:49;;;;;;;;;44.00;35.33;;;;;7.30;100.00;99385.31;6275176;20;2860868;-59
2023/04/16 05:11:17;;;;;;;;;35.33;32.00;;;;;7.18;100.00;99385.97;6310854;20;3580412;-59
2023/04/16 05:13:46;;;;;;;;;32.00;32.00;;;;;7.58;100.00;99390.06;6309836;20;3602903;-59
2023/04/16 05:16:15;;;;;;;;;39.00;35.00;;;;;7.53;100.00;99394.78;6269794;20;2837908;-60
2023/04/16 05:18:44;;;;;;;;;45.50;37.00;;;;;7.86;100.00;99391.22;6276923;20;2861864;-59
2023/04/16 05:21:13;;;;;;;;;27.00;23.50;;;;;7.93;100.00;99389.94;6278751;20;2829441;-60
2023/04/16 05:23:42;;;;;;;;;35.00;31.67;;;;;7.76;100.00;99390.00;6276503;20;2862756;-59
2023/04/16 05:26:11;;;;;;;;;33.67;29.33;;;;;7.60;100.00;99388.16;6306527;20;3600258;-60
2023/04/16 05:28:40;;;;;;;;;31.00;31.00;;;;;7.60;100.00;99393.50;6274360;20;2860797;-60
2023/04/16 05:31:09;;;;;;;;;34.67;30.33;;;;;7.80;100.00;99391.56;6275030;20;2861807;-60
2023/04/16 05:33:38;;;;;;;;;32.00;29.67;;;;;7.83;100.00;99400.25;6310652;20;3589416;-60
2023/04/16 05:36:07;;;;;;;;;31.00;29.33;;;;;7.94;100.00;99394.31;6268705;20;2847169;-59
2023/04/16 05:38:36;;;;;;;;;34.33;33.00;;;;;7.73;100.00;99401.72;6306815;20;3601328;-59
2023/04/16 05:41:05;;;;;;;;;33.00;29.50;;;;;7.91;100.00;99397.16;6274515;20;2850341;-60
2023/04/16 05:43:34;;;;;;;;;32.67;31.67;;;;;7.82;100.00;99403.00;6273832;20;2855532;-59
2023/04/16 05:46:03;;;;;;;;;26.00;25.00;;;;;7.76;100.00;99404.22;6304891;20;2841189;-59
2023/04/16 05:48:33;;;;;;;;;30.00;26.00;;;;;7.83;100.00;99397.59;6267739;20;2856500;-60
2023/04/16 05:51:02;;;;;;;;;22.33;22.33;;;;;7.94;100.00;99399.66;6312226;20;3584739;-59
2023/04/16 05:53:30;;;;;;;;;28.00;28.00;;;;;8.12;100.00;99406.66;6309727;20;3600300;-60
2023/04/16 05:55:59;;;;;;;;;25.00;23.00;;;;;8.20;100.00;99408.91;6274415;20;2847243;-60
2023/04/16 05:58:28;;;;;;;;;26.00;26.00;;;;;8.08;100.00;99409.59;6276607;20;2850269;-60
2023/04/16 06:00:57;;;;;;;;;19.00;19.00;;;;;8.04;100.00;99414.25;6273934;20;3559649;-60
2023/04/16 06:03:25;;;;;;;;;24.50;20.50;;;;;8.10;100.00;99413.91;6272307;20;2500310;-60
2023/04/16 06:05:54;;;;;;;;;25.00;23.00;;;;;8.27;100.00;99404.94;6274212;20;2842016;-60
2023/04/16 06:08:23;;;;;;;;;25.00;21.00;;;;;8.37;100.00;99399.91;6274958;20;2839959;-60
2023/04/16 06:10:52;;;;;;;;;26.50;22.00;;;;;8.46;100.00;99404.78;6274525;20;2842957;-61
2023/04/16 06:13:20;;;;;;;;;26.50;25.50;;;;;8.48;100.00;99408.25;6272542;20;2845069;-61
2023/04/16 06:15:49;;;;;;;;;19.50;18.00;;;;;8.55;100.00;99409.59;6273417;20;2833778;-61
2023/04/16 06:18:18;;;;;;;;;22.50;21.50;;;;;8.86;100.00;99402.47;6270157;20;2839854;-61
2023/04/16 06:20:47;;;;;;;;;21.00;21.00;;;;;9.18;100.00;99402.34;6275494;20;2831590;-60
2023/04/16 06:23:16;;;;;;;;;25.50;20.00;;;;;9.81;100.00;99409.19;6277287;20;2837794;-61
2023/04/16 06:25:44;;;;;;;;;26.00;21.50;;;;;9.70;100.00;99415.22;6274433;20;2840933;-61
2023/04/16 06:28:13;;;;;;;;;21.50;21.00;;;;;9.74;100.00;99410.53;6275872;20;2834769;-60
2023/04/16 06:30:42;;;;;;;;;24.00;21.50;;;;;9.91;100.00;99412.16;6275426;20;2841023;-61
2023/04/16 06:33:11;;;;;;;;;17.00;15.50;;;;;9.78;100.00;99417.44;6276800;20;2822195;-60
2023/04/16 06:35:40;;;;;;;;;22.50;20.50;;;;;9.88;100.00;99406.03;6275246;20;2838814;-61
2023/04/16 06:38:09;;;;;;;;;25.00;20.00;;;;;10.03;100.00;99406.00;6277230;20;2829989;-61
2023/04/16 06:40:38;;;;;;;;;21.00;17.33;;;;;10.44;100.00;99410.56;6273958;20;3564901;-61
2023/04/16 06:43:06;;;;;;;;;21.00;18.50;;;;;10.20;100.00;99403.13;6274380;20;2839952;-61
2023/04/16 06:45:34;;;;;;;;;19.00;18.00;;;;;10.82;97.82;99405.34;6270238;20;2500516;-61
2023/04/16 06:48:03;;;;;;;;;21.00;21.00;;;;;11.31;94.59;99409.19;6274418;20;2841977;-61
2023/04/16 06:50:33;;;;;;;;;19.50;19.00;;;;;11.54;92.31;99402.22;6276205;20;2834660;-61
2023/04/16 06:53:02;;;;;;;;;25.67;25.67;;;;;12.10;91.99;99404.56;6273371;20;2855627;-61
2023/04/16 06:55:31;;;;;;;;;25.67;25.67;;;;;12.17;89.62;99411.22;6306070;20;3593070;-61
2023/04/16 06:57:59;;;;;;;;;16.00;16.00;;;;;12.08;88.80;99407.34;6272297;20;2500367;-60
2023/04/16 07:00:28;;;;;;;;;17.50;16.50;;;;;12.06;89.73;99410.16;6276508;20;2826356;-61
2023/04/16 07:02:56;;;;;;;;;19.50;18.00;;;;;11.97;89.37;99410.81;6282158;20;2500314;-60
2023/04/16 07:05:26;;;;;;;;;30.33;29.33;;;;;12.73;86.88;99417.78;6280487;20;3593109;-60
2023/04/16 07:07:56;;;;;;;;;17.67;17.00;;;;;11.91;89.12;99419.34;6278506;20;3556540;-60
2023/04/16 07:10:25;;;;;;;;;15.00;15.00;;;;;11.87;89.28;99415.13;6282637;20;3532840;-60
2023/04/16 07:12:53;;;;;;;;;16.00;16.00;;;;;12.28;88.64;99422.06;6279157;20;2815912;-61
2023/04/16 07:15:21;;;;;;;;;21.00;18.00;;;;;12.66;85.94;99415.66;6276835;20;2494033;-60
2023/04/16 07:17:50;;;;;;;;;15.00;15.00;;;;;13.12;85.23;99418.47;6280428;20;3546196;-60
2023/04/16 07:20:19;;;;;;;;;17.00;17.00;;;;;13.00;85.57;99423.91;6278953;20;2832580;-60
2023/04/16 07:22:48;;;;;;;;;17.00;15.50;;;;;12.85;85.05;99412.44;6281123;20;2825460;-60
2023/04/16 07:25:16;;;;;;;;;12.33;11.00;;;;;13.48;82.37;99410.34;6277546;20;2786845;-60
2023/04/16 07:27:45;;;;;;;;;15.33;14.00;;;;;13.28;83.37;99415.47;6311418;20;3537882;-60
2023/04/16 07:30:14;;;;;;;;;17.00;15.67;;;;;13.85;82.17;99413.75;6277786;20;3558586;-60
2023/04/16 07:32:42;;;;;;;;;16.50;15.00;;;;;12.91;84.24;99412.88;6281424;20;2496140;-60
2023/04/16 07:35:11;;;;;;;;;16.00;14.00;;;;;13.31;84.72;99412.53;6280173;20;2804581;-60
2023/04/16 07:37:40;;;;;;;;;15.00;12.67;;;;;13.19;86.33;99421.53;6278785;20;3527368;-60
2023/04/16 07:40:08;;;;;;;;;15.50;15.00;;;;;12.59;86.67;99417.97;6277532;20;2500288;-59
2023/04/16 07:42:36;;;;;;;;;18.00;17.00;;;;;12.75;87.83;99423.09;6284223;20;2540970;-59
2023/04/16 07:45:06;;;;;;;;;21.00;16.00;;;;;12.82;88.16;99416.28;6278381;20;2839941;-60
2023/04/16 07:47:35;;;;;;;;;17.33;17.33;;;;;13.06;88.40;99420.75;6280941;20;2837819;-60
2023/04/16 07:50:05;;;;;;;;;17.00;17.00;;;;;13.44;84.05;99419.69;6310169;20;2828417;-59
2023/04/16 07:52:33;;;;;;;;;15.00;15.00;;;;;13.72;83.83;99419.25;6278654;20;3545044;-60
2023/04/16 07:55:01;;;;;;;;;17.00;17.00;;;;;13.88;82.90;99426.13;6309318;20;2492366;-60
2023/04/16 07:57:30;;;;;;;;;17.33;16.00;;;;;13.04;85.25;99425.41;6278516;20;3567013;-60
2023/04/16 08:00:01;;;;;;;;;16.00;16.00;;;;;13.39;84.42;99422.72;6278774;20;2819021;-59
2023/04/16 08:02:29;;;;;;;;;12.50;12.50;;;;;13.51;84.31;99415.53;6280642;20;2500348;-61
2023/04/16 08:04:58;;;;;;;;;14.00;13.00;;;;;13.07;83.17;99427.88;6280122;20;3519066;-59
2023/04/16 08:07:27;;;;;;;;;16.00;16.00;;;;;13.13;84.97;99438.19;6307910;20;3555500;-59
2023/04/16 08:09:55;;;;;;;;;12.00;12.00;;;;;12.85;85.22;99434.00;6276893;20;3527503;-60
2023/04/16 08:12:24;;;;;;;;;16.00;14.33;;;;;13.36;84.49;99434.63;6306786;20;3560771;-60
2023/04/16 08:14:53;;;;;;;;;18.33;14.00;;;;;13.81;82.91;99433.84;6306835;20;3551442;-59
2023/04/16 08:17:22;;;;;;;;;17.50;15.50;;;;;14.32;81.51;99433.34;6277856;20;2824241;-60
2023/04/16 08:19:49;;;;;;;;;13.00;8.00;;;;;13.79;80.94;99439.34;6278197;20;2760722;-60
2023/04/16 08:22:21;;;;;;;;;19.33;16.67;;;;;14.91;79.80;99451.06;6275360;20;3562793;-59
2023/04/16 08:24:51;;;;;;;;;15.33;13.33;;;;;14.38;79.90;99437.41;6277982;20;3530589;-60
2023/04/16 08:27:20;;;;;;;;;12.50;11.00;;;;;14.85;79.50;99440.75;6277451;20;2779570;-60
2023/04/16 08:29:48;;;;;;;;;16.33;16.33;;;;;14.99;81.15;99436.91;6282412;20;3561783;-60
2023/04/16 08:32:16;;;;;;;;;16.00;14.00;;;;;14.75;80.65;99442.53;6281145;20;2807685;-60
2023/04/16 08:34:45;;;;;;;;;16.50;16.00;;;;;14.89;80.45;99436.81;6277035;20;2829540;-60
2023/04/16 08:37:14;;;;;;;;;21.00;21.00;;;;;15.12;79.67;99443.84;6278973;20;2844036;-59
2023/04/16 08:39:42;;;;;;;;;15.50;14.00;;;;;14.80;79.47;99443.00;6275875;20;2489877;-61
2023/04/16 08:42:35;;;;;;;;;16.33;16.33;;;;;14.32;78.72;99444.13;6278778;20;3556513;-60
2023/04/16 08:45:16;;;;;;;;;13.40;9.80;;;;;13.91;80.40;99439.38;6302401;20;2785785;-59
2023/04/16 08:47:52;;;;;;;;;16.00;16.00;;;;;14.30;80.10;99445.25;6278035;20;2496125;-59
2023/04/16 08:50:27;;;;;;;;;14.33;14.33;;;;;14.39;81.87;99449.91;6278843;20;3527548;-60
2023/04/16 08:53:05;;;;;;;;;16.00;16.00;;;;;14.71;80.35;99450.00;6312485;20;3558640;-60
2023/04/16 08:55:48;;;;;;;;;13.33;12.33;;;;;14.81;79.71;99456.38;6275954;20;3538156;-57
2023/04/16 08:58:22;;;;;;;;;15.67;15.67;;;;;14.48;80.09;99454.56;6311284;20;3551364;-59
2023/04/16 09:00:51;;;;;;;;;19.50;18.50;;;;;14.81;80.36;99469.03;6278148;20;2827417;-59
2023/04/16 09:03:21;;;;;;;;;16.50;16.50;;;;;14.85;81.16;99460.53;6276914;20;2827524;-59
2023/04/16 09:05:51;;;;;;;;;17.00;16.00;;;;;15.25;81.25;99473.44;6273984;20;2825269;-57
2023/04/16 09:08:20;;;;;;;;;17.00;17.00;;;;;15.67;78.78;99469.91;6279865;20;2820291;-60
2023/04/16 09:10:50;;;;;;;;;13.80;12.80;;;;;15.04;79.87;99475.22;6299770;20;2798355;-60
2023/04/16 09:13:22;;;;;;;;;12.67;12.67;;;;;15.30;79.67;99484.72;6278052;20;3528498;-60
2023/04/16 09:15:55;;;;;;;;;14.00;11.50;;;;;14.99;78.44;99486.44;6306706;20;2491960;-60
2023/04/16 09:18:26;;;;;;;;;26.67;23.33;;;;;15.20;79.11;99488.34;6274724;20;2854529;-60
2023/04/16 09:20:56;;;;;;;;;12.33;9.67;;;;;14.64;77.71;99492.91;6309010;20;2788877;-60
2023/04/16 09:23:25;;;;;;;;;9.40;8.20;;;;;14.77;76.75;99486.47;6334119;20;2759783;-60
2023/04/16 09:25:54;;;;;;;;;12.00;7.00;;;;;14.68;75.83;99494.34;6281671;20;2749243;-59
2023/04/16 09:28:47;;;;;;;;;11.00;11.00;;;;;14.44;77.62;99491.78;6274995;20;3535687;-59
2023/04/16 09:31:18;;;;;;;;;16.33;15.33;;;;;14.56;78.11;99489.97;6308047;20;3558702;-59
2023/04/16 09:34:19;;;;;;;;;13.00;13.00;;;;;15.06;79.48;99493.06;6278808;20;3537791;-59
2023/04/16 09:36:48;;;;;;;;;19.00;14.00;;;;;14.65;78.21;99499.16;6267813;20;3544157;-60
2023/04/16 09:39:21;;;;;;;;;15.67;15.67;;;;;14.86;79.73;99496.53;6277431;20;3544050;-59
2023/04/16 09:41:53;;;;;;;;;17.00;17.00;;;;;15.00;78.67;99506.22;6272218;20;2827412;-60
2023/04/16 09:44:38;;;;;;;;;18.00;16.00;;;;;14.76;78.87;99503.69;6273913;20;2483659;-59
2023/04/16 09:47:09;;;;;;;;;15.50;15.50;;;;;14.76;80.42;99503.69;6274974;20;2819104;-59
2023/04/16 09:49:42;;;;;;;;;16.00;16.00;;;;;15.10;77.89;99494.50;6278993;20;2821191;-60
2023/04/16 09:52:21;;;;;;;;;17.00;17.00;;;;;14.94;77.52;99499.47;6278631;20;2828446;-60
2023/04/16 09:54:53;;;;;;;;;12.00;12.00;;;;;15.09;76.53;99498.19;6277798;20;3507551;-60
2023/04/16 09:57:24;;;;;;;;;11.00;11.00;;;;;14.91;74.66;99494.31;6307656;20;3520257;-60
2023/04/16 09:59:56;;;;;;;;;13.00;11.50;;;;;15.28;74.59;99494.81;6312188;20;2784797;-59
2023/04/16 10:02:29;;;;;;;;;12.33;11.00;;;;;15.74;73.74;99492.75;6280146;20;3504442;-60
2023/04/16 10:05:02;;;;;;;;;10.33;10.33;;;;;15.86;71.99;99486.28;6311693;20;2786797;-60
2023/04/16 10:07:35;;;;;;;;;8.50;8.50;;;;;15.96;71.78;99486.34;6315871;20;2756533;-59
2023/04/16 10:10:04;;;;;;;;;13.00;12.00;;;;;16.29;71.27;99490.63;6280258;20;2793128;-60
2023/04/16 10:12:32;;;;;;;;;8.00;8.00;;;;;16.48;69.26;99483.59;6284935;20;2750278;-60
2023/04/16 10:15:01;;;;;;;;;8.67;8.67;;;;;17.16;69.50;99491.91;6276764;20;2751328;-59
2023/04/16 10:17:31;;;;;;;;;9.40;8.00;;;;;16.91;67.97;99485.19;6333923;20;2759652;-59
2023/04/16 10:20:02;;;;;;;;;14.00;13.33;;;;;16.80;70.00;99489.72;6274491;20;3521076;-59
2023/04/16 10:22:30;;;;;;;;;10.00;10.00;;;;;16.98;69.05;99497.16;6304114;20;3514887;-61
2023/04/16 10:24:59;;;;;;;;;11.00;11.00;;;;;16.88;70.00;99494.44;6282583;20;2801363;-61
2023/04/16 10:27:28;;;;;;;;;11.67;11.67;;;;;17.05;70.02;99479.34;6276338;20;3518000;-60
2023/04/16 10:29:57;;;;;;;;;11.00;10.33;;;;;17.23;68.52;99480.34;6305802;20;2787815;-60
2023/04/16 10:32:30;;;;;;;;;5.57;5.57;;;;;16.86;70.20;99485.59;6352839;20;3448207;-60
2023/04/16 10:34:58;;;;;;;;;9.50;9.50;;;;;16.68;70.24;99483.50;6314165;20;2773222;-61
2023/04/16 10:37:32;;;;;;;;;10.00;10.00;;;;;16.24;70.71;99474.81;6282124;20;2786759;-60
2023/04/16 10:40:01;;;;;;;;;12.33;10.67;;;;;16.26;70.88;99477.38;6280949;20;3512757;-59
2023/04/16 10:42:31;;;;;;;;;13.67;13.67;;;;;16.08;71.67;99473.56;6306271;20;3524242;-59
2023/04/16 10:45:01;;;;;;;;;10.00;10.00;;;;;15.80;72.17;99470.59;6333728;20;2811733;-61
2023/04/16 10:47:30;;;;;;;;;11.00;11.00;;;;;16.00;72.07;99472.38;6307529;20;2800349;-60
2023/04/16 10:49:59;;;;;;;;;16.00;16.00;;;;;16.33;70.67;99469.56;6307794;20;3557610;-60
2023/04/16 10:52:29;;;;;;;;;14.67;14.33;;;;;16.85;71.26;99473.00;6308638;20;3526329;-60
2023/04/16 10:55:00;;;;;;;;;12.00;11.67;;;;;16.95;71.62;99478.47;6310258;20;3517977;-60
2023/04/16 10:57:29;;;;;;;;;12.33;9.33;;;;;16.88;71.16;99476.31;6314210;20;3502410;-60
2023/04/16 10:59:58;;;;;;;;;10.67;10.67;;;;;16.72;69.94;99478.69;6310240;20;3514859;-60
2023/04/16 11:02:28;;;;;;;;;131.00;110.75;;;;;16.42;69.78;99471.44;6314892;20;4488824;-59
2023/04/16 11:05:01;;;;;;;;;115.75;103.50;;;;;16.70;72.15;99469.81;6276610;20;4463813;-61
2023/04/16 11:07:34;;;;;;;;;12.00;12.00;;;;;16.59;71.34;99472.66;6316688;20;2786772;-61
2023/04/16 11:10:13;;;;;;;;;9.00;9.00;;;;;16.27;72.07;99467.38;6279857;20;2752411;-60
2023/04/16 11:12:47;;;;;;;;;11.67;11.67;;;;;16.68;72.14;99466.38;6283294;20;2799312;-59